Time;durP1;ratioP1;P1;durP2;ratioP2;P2;SDS_P1;SDS_P2;PMS_P1;PMS_P2;Temp;Humidity;BMP_temperature;BMP_pressure;BME280_temperature;BME280_humidity;BME280_pressure;Samples;Min_cycle;Max_cycle;Signal;HPM_P1;HPM_P2
2022/12/18 00:01:27;;;;;;;21.17;9.60;;;-6.20;99.90;;;;;;5053313;28;20162;-53
2022/12/18 00:03:54;;;;;;;24.53;10.07;;;-6.20;99.90;;;;;;5053303;28;20435;-53
2022/12/18 00:06:20;;;;;;;22.07;10.03;;;-6.30;99.90;;;;;;5053403;28;20569;-51
2022/12/18 00:08:47;;;;;;;21.87;9.83;;;-6.30;99.90;;;;;;5053213;28;20474;-53
2022/12/18 00:11:15;;;;;;;22.13;9.93;;;-6.30;99.90;;;;;;5052881;28;20451;-54
2022/12/18 00:13:40;;;;;;;24.63;10.63;;;-6.40;99.90;;;;;;5053270;28;20431;-53
2022/12/18 00:16:12;;;;;;;26.60;11.00;;;-6.40;99.90;;;;;;5052948;28;21022;-52
2022/12/18 00:18:38;;;;;;;23.60;9.90;;;-6.40;99.90;;;;;;5052995;28;20029;-53
2022/12/18 00:21:07;;;;;;;21.17;9.37;;;-6.40;99.90;;;;;;5052921;28;20423;-50
2022/12/18 00:23:34;;;;;;;22.07;9.90;;;-6.40;99.90;;;;;;5052733;28;20424;-54
2022/12/18 00:26:06;;;;;;;21.53;9.80;;;-6.40;99.90;;;;;;5052866;28;20476;-50
2022/12/18 00:28:31;;;;;;;22.60;9.20;;;-6.40;99.90;;;;;;5052342;28;20467;-53
2022/12/18 00:31:05;;;;;;;22.87;9.20;;;-6.40;99.90;;;;;;5052754;28;20466;-54
2022/12/18 00:33:31;;;;;;;21.87;8.90;;;-6.40;99.90;;;;;;5052509;28;20021;-54
2022/12/18 00:36:05;;;;;;;24.17;9.63;;;-6.40;99.90;;;;;;5052598;28;20455;-53
2022/12/18 00:38:32;;;;;;;20.87;9.40;;;-6.40;99.90;;;;;;5051176;28;20438;-55
2022/12/18 00:40:57;;;;;;;24.33;9.37;;;-6.40;99.90;;;;;;5052703;28;20423;-51
2022/12/18 00:43:23;;;;;;;19.43;8.57;;;-6.30;99.90;;;;;;5051071;28;20463;-52
2022/12/18 00:45:49;;;;;;;22.43;9.10;;;-6.20;99.90;;;;;;5052518;28;20033;-53
2022/12/18 00:48:15;;;;;;;23.57;9.07;;;-6.10;99.90;;;;;;5050918;28;20032;-53
2022/12/18 00:50:40;;;;;;;21.10;9.03;;;-6.10;99.90;;;;;;5052052;28;20036;-53
2022/12/18 00:53:09;;;;;;;16.87;7.93;;;-6.10;99.90;;;;;;5052161;28;20033;-53
2022/12/18 00:55:36;;;;;;;20.23;9.10;;;-6.10;99.90;;;;;;5051469;28;20025;-51
2022/12/18 00:58:02;;;;;;;21.83;8.73;;;-6.10;99.90;;;;;;5052306;28;20558;-53
2022/12/18 01:00:28;;;;;;;18.67;8.47;;;-6.20;99.90;;;;;;5050628;28;20435;-48
2022/12/18 01:02:53;;;;;;;21.87;8.97;;;-6.20;99.90;;;;;;5052107;28;20021;-50
2022/12/18 01:05:19;;;;;;;22.33;9.37;;;-6.20;99.90;;;;;;5052012;28;20025;-49
2022/12/18 01:07:45;;;;;;;20.37;8.00;;;-6.30;99.90;;;;;;5051889;28;20032;-47
2022/12/18 01:10:12;;;;;;;19.10;8.50;;;-6.20;99.90;;;;;;5051708;28;20053;-49
2022/12/18 01:12:38;;;;;;;19.87;8.87;;;-6.30;99.90;;;;;;5052309;28;20106;-47
2022/12/18 01:15:05;;;;;;;19.77;8.00;;;-6.30;99.90;;;;;;5051852;28;20458;-47
2022/12/18 01:17:31;;;;;;;20.83;8.57;;;-6.30;99.90;;;;;;5051812;28;20419;-48
2022/12/18 01:19:59;;;;;;;19.60;7.73;;;-6.30;99.90;;;;;;5050169;28;20498;-50
2022/12/18 01:22:25;;;;;;;16.97;7.20;;;-6.10;99.90;;;;;;5050376;28;20435;-52
2022/12/18 01:24:51;;;;;;;15.40;6.83;;;-5.90;99.90;;;;;;5051719;28;20447;-52
2022/12/18 01:27:16;;;;;;;17.37;7.17;;;-5.70;99.90;;;;;;5051792;28;20029;-52
2022/12/18 01:29:42;;;;;;;16.87;7.20;;;-5.50;99.90;;;;;;5051433;28;20033;-50
2022/12/18 01:32:08;;;;;;;15.93;6.80;;;-5.40;99.90;;;;;;5051370;28;20041;-49
2022/12/18 01:34:36;;;;;;;16.53;6.87;;;-5.30;99.90;;;;;;5050033;28;20124;-47
2022/12/18 01:37:04;;;;;;;16.30;6.07;;;-5.20;99.90;;;;;;5050090;28;20971;-50
2022/12/18 01:39:31;;;;;;;15.00;6.40;;;-5.00;99.90;;;;;;5049822;28;20040;-53
2022/12/18 01:42:10;;;;;;;16.07;6.23;;;-4.80;99.90;;;;;;5050002;28;20826;-53
2022/12/18 01:44:52;;;;;;;13.73;5.55;;;-4.80;99.90;;;;;;5049994;28;20436;-53
2022/12/18 01:47:38;;;;;;;14.07;6.10;;;-4.80;99.90;;;;;;5051121;28;20071;-53
2022/12/18 01:50:19;;;;;;;13.07;6.57;;;-4.90;99.90;;;;;;5051154;28;20795;-54
2022/12/18 01:52:53;;;;;;;15.63;6.63;;;-5.00;99.90;;;;;;5049819;28;20483;-52
2022/12/18 01:55:22;;;;;;;15.50;6.43;;;-5.10;99.90;;;;;;5051078;28;20546;-49
2022/12/18 01:57:49;;;;;;;18.37;7.27;;;-5.00;99.90;;;;;;5049585;28;20543;-53
2022/12/18 02:00:19;;;;;;;17.43;6.93;;;-5.00;99.90;;;;;;5051039;28;20442;-50
2022/12/18 02:02:46;;;;;;;10.85;5.18;;;-4.90;99.90;;;;;;5049815;28;20479;-50
2022/12/18 02:05:16;;;;;;;14.20;6.07;;;-4.70;99.90;;;;;;5051014;28;20029;-51
2022/12/18 02:08:12;;;;;;;13.27;6.30;;;-4.60;99.90;;;;;;5048635;28;20427;-53
2022/12/18 02:10:41;;;;;;;14.57;6.60;;;-4.60;99.90;;;;;;5049346;28;20538;-48
2022/12/18 02:13:13;;;;;;;15.52;6.32;;;-4.60;99.90;;;;;;5049428;28;20447;-49
2022/12/18 02:16:23;;;;;;;14.67;6.27;;;-4.60;99.90;;;;;;5050811;28;20083;-48
2022/12/18 02:18:55;;;;;;;15.33;6.20;;;-4.50;99.90;;;;;;5035044;28;20891;-48
2022/12/18 02:21:54;;;;;;;13.93;6.50;;;-4.40;99.90;;;;;;5051058;28;20408;-49
2022/12/18 02:24:23;;;;;;;12.65;5.95;;;-4.30;99.90;;;;;;5050659;28;20477;-48
2022/12/18 02:27:02;;;;;;;11.00;5.28;;;-4.30;99.90;;;;;;5049213;28;20515;-50
2022/12/18 02:29:37;;;;;;;16.93;6.60;;;-4.20;99.90;;;;;;5033518;28;20130;-51
2022/12/18 02:32:08;;;;;;;13.57;6.23;;;-4.20;99.90;;;;;;5049194;28;21064;-50
2022/12/18 02:34:38;;;;;;;16.23;6.83;;;-4.30;99.90;;;;;;5062084;22;20496;-51
2022/12/18 02:37:09;;;;;;;18.07;6.77;;;-4.20;99.90;;;;;;5049264;28;20462;-49
2022/12/18 02:39:40;;;;;;;15.30;7.17;;;-4.30;99.90;;;;;;5048998;28;20443;-51
2022/12/18 02:42:07;;;;;;;;;;;-4.20;99.90;;;;;;5049707;28;20588;-51
2022/12/18 02:44:46;;;;;;;15.53;6.37;;;-4.20;99.90;;;;;;5049046;28;19909;-50
2022/12/18 02:47:17;;;;;;;12.90;6.03;;;-4.40;99.90;;;;;;5048951;28;20447;-54
2022/12/18 02:50:19;;;;;;;15.98;6.30;;;-4.40;99.90;;;;;;5048946;28;21008;-50
2022/12/18 02:53:18;;;;;;;12.87;6.20;;;-4.50;99.90;;;;;;5048958;28;20037;-54
2022/12/18 02:55:51;;;;;;;17.07;6.80;;;-4.60;99.90;;;;;;5048937;28;20459;-54
2022/12/18 02:58:44;;;;;;;16.37;7.17;;;-4.70;99.90;;;;;;5048818;28;20428;-56
2022/12/18 03:01:32;;;;;;;17.60;6.63;;;-4.80;99.90;;;;;;5049259;28;20994;-55
2022/12/18 03:04:06;;;;;;;15.37;6.77;;;-4.90;99.90;;;;;;5048866;28;20044;-49
2022/12/18 03:06:37;;;;;;;15.07;5.90;;;-5.00;99.90;;;;;;5048784;28;20435;-53
2022/12/18 03:09:08;;;;;;;17.00;7.27;;;-5.00;99.90;;;;;;5048761;28;20431;-55
2022/12/18 03:14:28;;;;;;;17.67;7.10;;;-5.10;99.90;;;;;;5049954;28;20483;-53
2022/12/18 03:17:00;;;;;;;15.27;7.20;;;-5.20;99.90;;;;;;5048643;28;20456;-51
2022/12/18 03:19:29;;;;;;;17.33;7.37;;;-5.20;99.90;;;;;;5050388;28;21038;-53
2022/12/18 03:22:00;;;;;;;17.27;7.57;;;-5.30;99.90;;;;;;5054184;28;20439;-52
2022/12/18 03:24:33;;;;;;;17.30;6.70;;;-5.30;99.90;;;;;;5052687;28;20459;-50
2022/12/18 03:27:06;;;;;;;15.60;7.20;;;-5.20;99.90;;;;;;5053659;28;20427;-51
2022/12/18 03:30:07;;;;;;;16.60;7.07;;;-5.20;99.90;;;;;;5052507;28;20459;-50
2022/12/18 03:32:41;;;;;;;12.33;5.87;;;-4.90;99.90;;;;;;5048051;28;20876;-50
2022/12/18 03:35:08;;;;;;;15.47;7.03;;;-4.80;99.90;;;;;;5052468;28;20876;-51
2022/12/18 03:37:36;;;;;;;14.05;5.82;;;-4.50;99.90;;;;;;5052189;28;20542;-53
2022/12/18 03:40:04;;;;;;;13.73;5.97;;;-4.10;99.90;;;;;;5052061;28;20559;-53
2022/12/18 03:42:49;;;;;;;16.00;5.73;;;-3.90;99.90;;;;;;5052345;28;20463;-51
2022/12/18 03:45:26;;;;;;;13.33;6.13;;;-3.70;99.90;;;;;;5052403;28;20435;-52
2022/12/18 03:48:06;;;;;;;14.50;5.97;;;-3.40;99.90;;;;;;5053389;28;20427;-52
2022/12/18 03:50:42;;;;;;;9.50;4.97;;;-3.30;99.90;;;;;;5051969;28;21068;-51
2022/12/18 03:53:10;;;;;;;13.07;4.73;;;-3.20;99.90;;;;;;5052166;28;20443;-49
2022/12/18 03:55:39;;;;;;;10.63;5.43;;;-3.10;99.90;;;;;;5051966;28;20464;-53
2022/12/18 03:58:08;;;;;;;13.40;5.60;;;-3.00;99.90;;;;;;5051777;28;20497;-53
2022/12/18 04:00:49;;;;;;;12.57;5.43;;;-3.00;99.90;;;;;;5051784;28;20427;-52
2022/12/18 04:03:17;;;;;;;12.43;5.93;;;-3.00;99.90;;;;;;5052107;28;20443;-51
2022/12/18 04:05:50;;;;;;;10.37;5.23;;;-3.00;99.90;;;;;;5052007;28;20432;-54
2022/12/18 04:08:18;;;;;;;11.67;5.40;;;-3.00;99.90;;;;;;5051717;28;20439;-53
2022/12/18 04:10:51;;;;;;;12.40;5.00;;;-3.00;99.90;;;;;;5051506;28;20453;-54
2022/12/18 04:13:29;;;;;;;11.23;4.80;;;-3.00;99.90;;;;;;5051657;28;20513;-53
2022/12/18 04:15:56;;;;;;;12.80;5.83;;;-3.10;99.90;;;;;;5051614;28;20521;-55
2022/12/18 04:18:23;;;;;;;10.93;5.40;;;-3.10;99.90;;;;;;5051577;28;21208;-54
2022/12/18 04:20:49;;;;;;;12.27;5.47;;;-3.10;99.90;;;;;;5051324;28;20535;-54
2022/12/18 04:23:16;;;;;;;13.87;5.97;;;-3.20;99.90;;;;;;5051504;28;20367;-54
2022/12/18 04:25:42;;;;;;;14.10;5.70;;;-3.40;99.90;;;;;;5051501;28;20457;-55
2022/12/18 04:28:11;;;;;;;10.85;5.05;;;-3.50;99.90;;;;;;5051365;28;20415;-52
2022/12/18 04:30:38;;;;;;;13.63;6.60;;;-3.60;99.90;;;;;;5051519;28;20027;-53
2022/12/18 04:33:09;;;;;;;14.00;6.13;;;-3.70;99.90;;;;;;5051110;28;20448;-50
2022/12/18 04:35:35;;;;;;;13.03;5.83;;;-3.80;99.90;;;;;;5052409;28;20718;-49
2022/12/18 04:38:01;;;;;;;11.43;6.10;;;-3.90;99.90;;;;;;5051055;28;20474;-52
2022/12/18 04:40:26;;;;;;;12.23;5.47;;;-4.00;99.90;;;;;;5052289;28;20049;-53
2022/12/18 04:42:52;;;;;;;12.50;6.10;;;-4.10;99.90;;;;;;5051159;28;20036;-51
2022/12/18 04:45:18;;;;;;;10.40;6.03;;;-4.10;99.90;;;;;;5052558;28;20112;-51
2022/12/18 04:47:44;;;;;;;12.00;6.10;;;-4.20;99.90;;;;;;5052351;28;20525;-50
2022/12/18 04:50:10;;;;;;;16.17;6.90;;;-4.30;99.90;;;;;;5052018;28;20439;-51
2022/12/18 04:52:36;;;;;;;13.90;6.23;;;-4.40;99.90;;;;;;5052444;28;20037;-53
2022/12/18 04:55:01;;;;;;;15.57;6.57;;;-4.40;99.90;;;;;;5052270;28;20037;-52
2022/12/18 04:57:27;;;;;;;15.43;6.27;;;-4.50;99.90;;;;;;5052060;28;20021;-52
2022/12/18 04:59:53;;;;;;;12.57;5.80;;;-4.50;99.90;;;;;;5052025;28;20029;-52
2022/12/18 05:02:19;;;;;;;14.83;6.70;;;-4.60;99.90;;;;;;5051983;28;20035;-53
2022/12/18 05:04:45;;;;;;;15.43;6.40;;;-4.60;99.90;;;;;;5052066;28;20522;-52
2022/12/18 05:07:10;;;;;;;14.53;6.47;;;-4.70;99.90;;;;;;5051862;28;20393;-52
2022/12/18 05:09:36;;;;;;;12.97;6.43;;;-4.70;99.90;;;;;;5051806;28;20079;-56
2022/12/18 05:12:02;;;;;;;16.13;6.07;;;-4.70;99.90;;;;;;5052153;28;20048;-50
2022/12/18 05:14:29;;;;;;;13.70;6.20;;;-4.70;99.90;;;;;;5051779;28;20112;-53
2022/12/18 05:16:54;;;;;;;14.60;6.17;;;-4.80;99.90;;;;;;5052073;28;20485;-52
2022/12/18 05:19:20;;;;;;;12.83;5.90;;;-4.90;99.90;;;;;;5051541;28;20427;-55
2022/12/18 05:21:46;;;;;;;14.33;6.73;;;-4.90;99.90;;;;;;5051939;28;20524;-52
2022/12/18 05:24:11;;;;;;;15.73;7.03;;;-5.00;99.90;;;;;;5051659;28;20071;-54
2022/12/18 05:26:37;;;;;;;16.57;6.57;;;-5.00;99.90;;;;;;5051639;28;20031;-53
2022/12/18 05:29:03;;;;;;;13.67;6.57;;;-5.00;99.90;;;;;;5051542;28;20087;-55
2022/12/18 05:31:29;;;;;;;13.63;6.20;;;-5.10;99.90;;;;;;5051616;28;20501;-51
2022/12/18 05:33:54;;;;;;;15.03;6.73;;;-5.10;99.90;;;;;;5051130;28;20489;-49
2022/12/18 05:36:20;;;;;;;16.03;6.90;;;-5.10;99.90;;;;;;5051333;28;20104;-52
2022/12/18 05:38:46;;;;;;;15.67;6.03;;;-5.20;99.90;;;;;;5051363;28;20446;-53
2022/12/18 05:41:11;;;;;;;15.27;6.50;;;-5.20;99.90;;;;;;5051776;28;20032;-52
2022/12/18 05:43:39;;;;;;;12.23;6.17;;;-5.20;99.90;;;;;;5051070;28;20493;-54
2022/12/18 05:46:13;;;;;;;16.43;7.07;;;-5.30;99.90;;;;;;5051374;28;20078;-49
2022/12/18 05:48:39;;;;;;;15.17;6.10;;;-5.30;99.90;;;;;;5050637;28;20455;-54
2022/12/18 05:51:10;;;;;;;16.17;7.27;;;-5.40;99.90;;;;;;5051231;28;20427;-54
2022/12/18 05:53:37;;;;;;;14.67;6.10;;;-5.40;99.90;;;;;;5051260;28;20383;-54
2022/12/18 05:56:05;;;;;;;15.93;6.63;;;-5.40;99.90;;;;;;5051052;28;20451;-49
2022/12/18 05:58:32;;;;;;;15.77;6.57;;;-5.50;99.90;;;;;;5050775;28;20539;-55
2022/12/18 06:01:05;;;;;;;16.37;6.27;;;-5.50;99.90;;;;;;5050958;28;20788;-54
2022/12/18 06:03:30;;;;;;;15.47;6.47;;;-5.50;99.90;;;;;;5050919;28;20541;-51
2022/12/18 06:05:56;;;;;;;14.90;6.10;;;-5.50;99.90;;;;;;5050945;28;20482;-50
2022/12/18 06:08:22;;;;;;;14.00;6.67;;;-5.60;99.90;;;;;;5050688;28;20029;-50
2022/12/18 06:10:54;;;;;;;15.33;6.93;;;-5.70;99.90;;;;;;5050726;28;20060;-51
2022/12/18 06:13:21;;;;;;;14.83;6.67;;;-5.70;99.90;;;;;;5050766;28;20116;-52
2022/12/18 06:15:46;;;;;;;15.20;7.77;;;-5.80;99.90;;;;;;5050668;28;21006;-52
2022/12/18 06:18:12;;;;;;;16.03;6.87;;;-5.80;99.90;;;;;;5050564;28;20431;-53
2022/12/18 06:20:39;;;;;;;16.00;7.10;;;-5.80;99.90;;;;;;5050550;28;20021;-53
2022/12/18 06:23:05;;;;;;;14.80;6.97;;;-5.90;99.90;;;;;;5050568;28;20112;-53
2022/12/18 06:25:32;;;;;;;17.20;7.10;;;-5.90;99.90;;;;;;5050686;28;20442;-51
2022/12/18 06:27:58;;;;;;;13.33;5.80;;;-5.90;99.90;;;;;;5050464;28;21050;-50
2022/12/18 06:30:24;;;;;;;15.13;6.73;;;-6.00;99.90;;;;;;5050290;28;20943;-49
2022/12/18 06:32:50;;;;;;;14.57;6.63;;;-6.00;99.90;;;;;;5050281;28;20454;-51
2022/12/18 06:35:16;;;;;;;14.77;6.17;;;-6.00;99.90;;;;;;5050627;28;20375;-51
2022/12/18 06:37:42;;;;;;;16.40;7.00;;;-6.10;99.90;;;;;;5050402;28;20489;-50
2022/12/18 06:40:08;;;;;;;13.23;6.33;;;-6.10;99.90;;;;;;5050432;28;20108;-51
2022/12/18 06:42:34;;;;;;;13.57;6.30;;;-6.10;99.90;;;;;;5050369;28;20370;-52
2022/12/18 06:45:00;;;;;;;14.20;5.93;;;-6.20;99.90;;;;;;5050616;28;20453;-49
2022/12/18 06:47:25;;;;;;;15.07;5.33;;;-6.20;99.90;;;;;;5050322;28;20044;-54
2022/12/18 06:49:51;;;;;;;14.83;6.20;;;-6.20;99.90;;;;;;5050301;28;20064;-53
2022/12/18 06:52:17;;;;;;;16.77;6.53;;;-6.20;99.90;;;;;;5050326;28;20067;-55
2022/12/18 06:54:43;;;;;;;12.50;5.43;;;-6.30;99.90;;;;;;5053182;28;20535;-54
2022/12/18 06:57:08;;;;;;;15.13;6.30;;;-6.40;99.90;;;;;;5054473;28;20436;-54
2022/12/18 06:59:34;;;;;;;16.03;5.67;;;-6.40;99.90;;;;;;5054648;28;20033;-54
2022/12/18 07:02:00;;;;;;;12.73;5.67;;;-6.40;99.90;;;;;;5054943;28;20053;-54
2022/12/18 07:04:31;;;;;;;13.27;5.60;;;-6.50;99.90;;;;;;5054570;28;20029;-55
2022/12/18 07:06:57;;;;;;;14.17;5.80;;;-6.50;99.90;;;;;;5054289;28;20071;-53
2022/12/18 07:09:23;;;;;;;14.23;5.60;;;-6.50;99.90;;;;;;5054249;28;20467;-49
2022/12/18 07:11:49;;;;;;;12.80;5.33;;;-6.50;99.90;;;;;;5054271;28;20080;-54
2022/12/18 07:14:15;;;;;;;14.07;5.57;;;-6.50;99.90;;;;;;5054199;28;21003;-53
2022/12/18 07:16:41;;;;;;;13.50;5.87;;;-6.50;99.90;;;;;;5053945;28;20498;-52
2022/12/18 07:19:06;;;;;;;15.00;6.10;;;-6.60;99.90;;;;;;5053917;28;20035;-56
2022/12/18 07:21:32;;;;;;;15.77;6.20;;;-6.60;99.90;;;;;;5054359;28;20021;-52
2022/12/18 07:23:58;;;;;;;17.10;6.93;;;-6.60;99.90;;;;;;5054057;28;20310;-54
2022/12/18 07:26:23;;;;;;;14.53;6.23;;;-6.60;99.90;;;;;;5053819;28;20108;-54
2022/12/18 07:28:50;;;;;;;14.93;5.97;;;-6.50;99.90;;;;;;5054156;28;20021;-55
2022/12/18 07:31:19;;;;;;;14.87;6.40;;;-6.50;99.90;;;;;;5054002;28;20499;-55
2022/12/18 07:33:46;;;;;;;13.60;6.05;;;-6.40;99.90;;;;;;5053894;28;20460;-51
2022/12/18 07:36:12;;;;;;;15.20;5.90;;;-6.40;99.90;;;;;;5054128;28;20035;-54
2022/12/18 07:38:38;;;;;;;14.47;5.13;;;-6.50;99.90;;;;;;5053462;28;20518;-53
2022/12/18 07:41:07;;;;;;;13.20;5.00;;;-6.50;99.90;;;;;;5053583;28;20542;-51
2022/12/18 07:43:33;;;;;;;13.77;5.33;;;-6.50;99.90;;;;;;5053631;28;20466;-50
2022/12/18 07:45:59;;;;;;;13.17;6.00;;;-6.50;99.90;;;;;;5053566;28;20431;-54
2022/12/18 07:48:25;;;;;;;14.70;5.67;;;-6.50;99.90;;;;;;5053513;28;20493;-55
2022/12/18 07:50:51;;;;;;;13.80;5.77;;;-6.40;99.90;;;;;;5053297;28;20120;-50
2022/12/18 07:53:16;;;;;;;13.77;6.23;;;-6.50;99.90;;;;;;5053482;28;20227;-53
2022/12/18 07:55:42;;;;;;;13.97;5.53;;;-6.50;99.90;;;;;;5053273;28;20044;-54
2022/12/18 07:58:08;;;;;;;17.17;6.63;;;-6.40;99.90;;;;;;5053078;28;20036;-56
2022/12/18 08:00:35;;;;;;;18.77;6.43;;;-6.30;99.90;;;;;;5053042;28;20104;-50
2022/12/18 08:03:01;;;;;;;13.37;5.47;;;-6.30;99.90;;;;;;5053129;28;20462;-54
2022/12/18 08:05:27;;;;;;;15.00;6.40;;;-6.30;99.90;;;;;;5053099;28;20463;-50
2022/12/18 08:07:53;;;;;;;11.50;5.70;;;-6.30;99.90;;;;;;5053024;28;20517;-53
2022/12/18 08:10:19;;;;;;;16.73;6.33;;;-6.30;99.90;;;;;;5052834;28;20033;-52
2022/12/18 08:12:45;;;;;;;13.87;6.23;;;-6.20;99.90;;;;;;5052872;28;20465;-52
2022/12/18 08:15:11;;;;;;;15.30;6.10;;;-6.20;99.90;;;;;;5053019;28;20550;-49
2022/12/18 08:17:37;;;;;;;14.37;5.90;;;-6.20;99.90;;;;;;5051625;28;20051;-53
2022/12/18 08:20:03;;;;;;;13.67;5.77;;;-6.20;99.90;;;;;;5052796;28;20025;-53
2022/12/18 08:22:29;;;;;;;16.60;6.00;;;-6.20;99.90;;;;;;5052867;28;20025;-53
2022/12/18 08:24:55;;;;;;;15.83;6.67;;;-6.10;99.90;;;;;;5052760;28;20474;-54
2022/12/18 08:27:21;;;;;;;14.37;5.70;;;-6.10;99.90;;;;;;5052812;28;20131;-54
2022/12/18 08:29:47;;;;;;;15.40;6.17;;;-6.00;99.90;;;;;;5052458;28;20435;-50
2022/12/18 08:32:12;;;;;;;17.07;6.87;;;-6.00;99.90;;;;;;5052815;28;20504;-52
2022/12/18 08:34:38;;;;;;;21.27;7.63;;;-5.90;99.90;;;;;;5066912;22;20049;-58
2022/12/18 08:37:04;;;;;;;20.10;7.37;;;-5.80;99.90;;;;;;5052627;28;20017;-55
2022/12/18 08:39:29;;;;;;;16.90;7.67;;;-5.70;99.90;;;;;;5052508;28;20048;-55
2022/12/18 08:44:41;;;;;;;33.07;12.87;;;-5.50;99.90;;;;;;5052440;28;20043;-56
2022/12/18 08:47:06;;;;;;;26.73;10.97;;;-5.30;99.90;;;;;;5052275;28;20426;-54
2022/12/18 08:49:33;;;;;;;21.83;10.47;;;-5.10;99.90;;;;;;5052146;28;20788;-54
2022/12/18 08:51:59;;;;;;;21.10;8.43;;;-4.80;99.90;;;;;;5052772;28;20037;-55
2022/12/18 08:54:25;;;;;;;14.73;7.20;;;-4.50;99.90;;;;;;5052426;28;20463;-55
2022/12/18 08:56:51;;;;;;;17.13;7.13;;;-4.20;99.90;;;;;;5052009;28;20037;-55
2022/12/18 08:59:18;;;;;;;16.30;6.43;;;-3.90;99.90;;;;;;5051976;28;20424;-56
2022/12/18 09:01:43;;;;;;;21.37;8.57;;;-3.60;99.90;;;;;;5052338;28;20032;-55
2022/12/18 09:04:10;;;;;;;16.47;7.27;;;-3.40;99.90;;;;;;5052060;28;20452;-55
2022/12/18 09:06:36;;;;;;;23.00;9.60;;;-3.20;99.90;;;;;;5052030;28;20040;-56
2022/12/18 09:09:03;;;;;;;18.90;8.63;;;-3.00;99.90;;;;;;5052439;28;20428;-55
2022/12/18 09:11:29;;;;;;;18.70;8.83;;;-2.80;99.90;;;;;;5052507;28;20463;-55
2022/12/18 09:13:56;;;;;;;20.10;8.90;;;-2.60;99.90;;;;;;5052558;28;20467;-55
2022/12/18 09:16:23;;;;;;;21.90;9.80;;;-2.40;99.90;;;;;;5051262;28;21033;-54
2022/12/18 09:18:48;;;;;;;14.77;6.47;;;-2.20;99.90;;;;;;5051642;28;20028;-55
2022/12/18 09:21:17;;;;;;;14.30;6.23;;;-1.80;99.90;;;;;;5051604;28;20035;-55
2022/12/18 09:23:43;;;;;;;14.30;6.20;;;-1.60;99.90;;;;;;5051632;28;20451;-54
2022/12/18 09:26:09;;;;;;;12.83;5.70;;;-1.30;99.90;;;;;;5051774;28;20351;-55
2022/12/18 09:28:35;;;;;;;12.50;5.50;;;-1.10;99.90;;;;;;5051431;28;20043;-55
2022/12/18 09:31:06;;;;;;;13.47;5.83;;;-0.90;99.90;;;;;;5051420;28;20043;-54
2022/12/18 09:33:32;;;;;;;12.33;5.37;;;-0.70;99.90;;;;;;5051134;28;20045;-55
2022/12/18 09:35:57;;;;;;;10.53;5.10;;;-0.50;99.90;;;;;;5051508;28;20356;-55
2022/12/18 09:38:23;;;;;;;10.63;5.13;;;-0.40;99.90;;;;;;5051311;28;20033;-55
2022/12/18 09:40:57;;;;;;;11.47;5.20;;;-0.20;99.90;;;;;;5051195;28;20025;-54
2022/12/18 09:43:41;;;;;;;10.67;5.13;;;0.00;99.90;;;;;;5051331;28;20025;-54
2022/12/18 09:46:15;;;;;;;11.07;4.70;;;0.10;99.90;;;;;;5051236;28;20102;-55
2022/12/18 09:48:45;;;;;;;10.20;4.97;;;0.30;99.90;;;;;;5050921;28;20029;-56
2022/12/18 09:51:25;;;;;;;10.17;5.90;;;0.50;99.90;;;;;;5051219;28;20043;-56
2022/12/18 09:53:57;;;;;;;10.02;4.80;;;0.60;99.90;;;;;;5051152;28;20167;-56
2022/12/18 09:56:25;;;;;;;10.97;4.60;;;0.70;99.90;;;;;;5050919;28;20029;-55
2022/12/18 09:58:59;;;;;;;11.30;5.50;;;0.80;99.90;;;;;;5050855;28;20029;-56
2022/12/18 10:01:27;;;;;;;9.83;4.37;;;0.80;99.90;;;;;;5051016;28;20037;-56
2022/12/18 10:03:54;;;;;;;8.87;4.13;;;0.90;99.90;;;;;;5051004;28;20444;-56
2022/12/18 10:06:26;;;;;;;9.73;4.57;;;1.10;99.90;;;;;;5051018;28;20284;-54
2022/12/18 10:09:26;;;;;;;9.33;5.43;;;1.20;99.90;;;;;;5050666;28;20029;-55
2022/12/18 10:12:03;;;;;;;10.67;4.53;;;1.30;99.90;;;;;;5047737;28;20461;-56
2022/12/18 10:14:57;;;;;;;7.63;4.10;;;1.40;99.90;;;;;;5050699;28;20033;-55
2022/12/18 10:17:23;;;;;;;8.60;4.63;;;1.60;99.90;;;;;;5048660;28;20032;-55
2022/12/18 10:20:19;;;;;;;9.97;4.67;;;1.70;99.90;;;;;;5050522;28;20086;-56
2022/12/18 10:23:13;;;;;;;11.40;4.20;;;1.70;99.20;;;;;;5050707;28;20025;-55
2022/12/18 10:25:45;;;;;;;9.33;4.53;;;1.80;99.30;;;;;;5050605;28;20090;-54
2022/12/18 10:28:14;;;;;;;8.63;4.10;;;1.90;99.20;;;;;;5049722;28;20477;-56
2022/12/18 10:30:41;;;;;;;11.13;4.60;;;1.90;99.50;;;;;;5050225;28;20116;-56
2022/12/18 10:33:16;;;;;;;11.17;5.20;;;2.10;98.90;;;;;;5050558;28;20029;-55
2022/12/18 10:35:43;;;;;;;16.33;7.90;;;2.20;98.00;;;;;;5050503;28;20055;-56
2022/12/18 10:38:15;;;;;;;13.37;7.73;;;2.40;97.70;;;;;;5050222;28;20029;-55
2022/12/18 10:41:14;;;;;;;12.57;6.30;;;2.30;97.70;;;;;;5050358;28;20032;-56
2022/12/18 10:43:40;;;;;;;11.90;5.47;;;2.50;97.50;;;;;;5050419;28;20036;-54
2022/12/18 10:46:09;;;;;;;11.77;5.07;;;2.70;96.80;;;;;;5050477;28;20040;-57
2022/12/18 10:48:49;;;;;;;10.10;5.00;;;2.90;97.00;;;;;;5050009;28;20437;-56
2022/12/18 10:51:29;;;;;;;8.93;4.90;;;3.00;96.20;;;;;;5050364;28;20036;-56
2022/12/18 10:54:22;;;;;;;15.17;7.17;;;3.10;95.30;;;;;;5050649;28;20033;-55
2022/12/18 10:56:48;;;;;;;10.53;4.67;;;2.90;95.70;;;;;;5050079;28;20068;-56
2022/12/18 10:59:16;;;;;;;7.37;3.17;;;2.80;96.30;;;;;;5050425;28;20025;-54
2022/12/18 11:01:57;;;;;;;9.85;5.32;;;2.70;96.30;;;;;;5050123;28;20545;-55
2022/12/18 11:04:24;;;;;;;22.00;11.67;;;2.60;96.90;;;;;;5050380;28;20313;-55
2022/12/18 11:06:57;;;;;;;28.17;15.30;;;2.60;97.20;;;;;;5050090;28;20025;-56
2022/12/18 11:09:26;;;;;;;22.00;10.87;;;2.40;97.20;;;;;;5050090;28;20029;-56
2022/12/18 11:11:58;;;;;;;12.45;6.20;;;2.40;97.60;;;;;;5050078;28;20029;-55
2022/12/18 11:14:49;;;;;;;10.97;5.00;;;2.30;97.40;;;;;;5050072;28;20033;-56
2022/12/18 11:17:27;;;;;;;9.57;4.87;;;2.20;97.90;;;;;;5050088;28;20043;-56
2022/12/18 11:19:58;;;;;;;9.77;5.30;;;2.20;98.10;;;;;;5049849;28;20025;-57
2022/12/18 11:22:35;;;;;;;11.73;5.13;;;2.30;97.50;;;;;;5050151;28;20120;-54
2022/12/18 11:25:18;;;;;;;10.47;5.10;;;2.40;97.50;;;;;;5050058;28;20021;-56
2022/12/18 11:28:22;;;;;;;10.47;4.40;;;2.40;97.50;;;;;;5049883;28;20033;-56
2022/12/18 11:30:48;;;;;;;11.03;4.57;;;2.40;97.30;;;;;;5049941;28;20032;-56
2022/12/18 11:33:20;;;;;;;10.83;4.77;;;2.40;97.30;;;;;;5049821;28;20449;-55
2022/12/18 11:35:56;;;;;;;10.87;4.60;;;2.30;97.50;;;;;;5048658;28;20485;-56
2022/12/18 11:38:26;;;;;;;11.27;4.33;;;2.30;97.50;;;;;;5048627;28;20055;-56
2022/12/18 11:41:01;;;;;;;8.23;4.43;;;2.40;97.50;;;;;;5052645;28;20082;-56
2022/12/18 11:43:31;;;;;;;13.67;5.60;;;2.30;97.50;;;;;;5053660;28;20501;-57
2022/12/18 11:46:12;;;;;;;10.33;4.80;;;2.40;97.50;;;;;;5053802;28;20041;-57
2022/12/18 11:48:51;;;;;;;11.27;5.27;;;2.30;97.70;;;;;;5053336;28;20175;-56
2022/12/18 11:51:27;;;;;;;13.67;6.20;;;2.30;98.00;;;;;;5053578;28;20128;-56
2022/12/18 11:53:53;;;;;;;20.47;11.97;;;2.10;98.20;;;;;;5052266;28;20505;-57
2022/12/18 11:56:27;;;;;;;18.20;9.13;;;2.20;98.00;;;;;;5053066;28;20116;-57
2022/12/18 11:59:12;;;;;;;11.40;5.47;;;2.10;98.50;;;;;;5053422;28;20091;-56
2022/12/18 12:01:47;;;;;;;10.47;5.70;;;2.10;98.50;;;;;;5053882;28;20594;-56
2022/12/18 12:04:38;;;;;;;9.33;4.77;;;2.00;98.60;;;;;;5053401;28;20462;-57
2022/12/18 12:07:17;;;;;;;13.40;5.33;;;2.00;98.30;;;;;;5051983;28;20108;-56
2022/12/18 12:09:48;;;;;;;14.40;5.90;;;2.10;98.00;;;;;;5052990;28;20025;-57
2022/12/18 12:12:47;;;;;;;11.47;5.40;;;2.00;98.50;;;;;;5053352;28;20545;-56
2022/12/18 12:15:48;;;;;;;11.40;5.10;;;2.00;98.40;;;;;;5053276;28;20427;-57
2022/12/18 12:18:14;;;;;;;12.73;6.27;;;1.90;98.70;;;;;;5053018;28;20040;-57
2022/12/18 12:21:04;;;;;;;8.03;3.90;;;1.90;99.00;;;;;;5053276;28;20029;-57
2022/12/18 12:24:02;;;;;;;13.30;5.80;;;1.80;98.80;;;;;;5053256;28;20033;-57
2022/12/18 12:26:46;;;;;;;8.70;3.87;;;1.80;98.70;;;;;;5052807;28;20327;-57
2022/12/18 12:29:30;;;;;;;10.73;5.30;;;1.80;98.90;;;;;;5052938;28;20482;-57
2022/12/18 12:32:14;;;;;;;9.97;5.33;;;1.80;98.90;;;;;;5052879;28;20033;-57
2022/12/18 12:35:01;;;;;;;14.73;6.70;;;1.80;98.90;;;;;;5052604;28;20039;-57
2022/12/18 12:37:29;;;;;;;18.90;9.17;;;1.80;99.10;;;;;;5052762;28;20029;-56
2022/12/18 12:39:56;;;;;;;11.63;5.63;;;1.80;99.70;;;;;;5052441;28;20086;-57
2022/12/18 12:45:51;;;;;;;13.40;6.40;;;1.70;99.20;;;;;;5052680;28;20472;-57
2022/12/18 12:48:43;;;;;;;11.03;5.43;;;1.70;99.20;;;;;;5052527;28;20029;-56
2022/12/18 12:51:32;;;;;;;9.43;4.40;;;1.50;99.20;;;;;;5051864;28;20048;-56
2022/12/18 12:53:58;;;;;;;14.13;6.80;;;1.60;99.50;;;;;;5052469;28;20028;-56
2022/12/18 12:56:35;;;;;;;13.43;5.57;;;1.50;99.80;;;;;;5052091;28;20029;-56
2022/12/18 12:59:04;;;;;;;12.67;5.93;;;1.50;99.70;;;;;;5052098;28;20036;-56
2022/12/18 13:01:59;;;;;;;15.13;6.47;;;1.50;99.70;;;;;;5052252;28;20025;-57
2022/12/18 13:04:47;;;;;;;16.50;6.47;;;1.40;99.80;;;;;;5052122;28;20040;-57
2022/12/18 13:07:24;;;;;;;11.13;4.97;;;1.50;99.90;;;;;;5052057;28;20104;-57
2022/12/18 13:10:25;;;;;;;15.03;6.10;;;1.50;99.90;;;;;;5051776;28;20082;-56